Time;durP1;ratioP1;P1;durP2;ratioP2;P2;SDS_P1;SDS_P2;PMS_P1;PMS_P2;Temp;Humidity;BMP_temperature;BMP_pressure;BME280_temperature;BME280_humidity;BME280_pressure;Samples;Min_cycle;Max_cycle;Signal;HPM_P1;HPM_P2
2022/07/14 00:00:51;;;;;;;20.25;3.17;;;;;;;;;;5054687;28;20025;-73
2022/07/14 00:03:17;;;;;;;28.67;4.00;;;;;;;;;;5054604;28;20432;-70
2022/07/14 00:05:43;;;;;;;23.02;3.85;;;;;;;;;;5053890;28;20021;-74
2022/07/14 00:08:09;;;;;;;20.60;3.20;;;;;;;;;;5054064;28;20359;-74
2022/07/14 00:10:35;;;;;;;20.90;3.13;;;;;;;;;;5056032;28;20029;-74
2022/07/14 00:13:01;;;;;;;24.88;3.42;;;;;;;;;;5054614;28;20025;-73
2022/07/14 00:15:27;;;;;;;25.48;2.97;;;;;;;;;;5055082;28;20501;-73
2022/07/14 00:17:55;;;;;;;19.38;3.20;;;;;;;;;;5054326;28;20380;-72
2022/07/14 00:20:21;;;;;;;24.02;3.58;;;;;;;;;;5053983;28;20021;-73
2022/07/14 00:22:47;;;;;;;18.20;3.30;;;;;;;;;;5053660;28;20124;-71
2022/07/14 00:25:13;;;;;;;19.23;3.35;;;;;;;;;;5053985;28;20522;-73
2022/07/14 00:27:39;;;;;;;28.27;3.85;;;;;;;;;;5053727;28;20071;-74
2022/07/14 00:30:06;;;;;;;20.35;3.15;;;;;;;;;;5053839;28;20204;-73
2022/07/14 00:32:33;;;;;;;23.20;3.97;;;;;;;;;;5053277;28;20537;-72
2022/07/14 00:34:59;;;;;;;16.35;2.75;;;;;;;;;;5052907;28;20021;-72
2022/07/14 00:37:25;;;;;;;18.88;3.30;;;;;;;;;;5053651;28;20032;-73
2022/07/14 00:39:54;;;;;;;19.40;3.00;;;;;;;;;;5053699;28;20405;-73
2022/07/14 00:42:32;;;;;;;14.80;2.95;;;;;;;;;;5053686;28;20485;-73
2022/07/14 00:45:00;;;;;;;21.13;3.20;;;;;;;;;;5053119;28;20131;-73
2022/07/14 00:47:26;;;;;;;25.60;3.45;;;;;;;;;;5053032;28;20049;-73
2022/07/14 00:49:53;;;;;;;24.25;3.72;;;;;;;;;;5053045;28;20393;-73
2022/07/14 00:52:19;;;;;;;19.50;3.22;;;;;;;;;;5052826;28;20162;-71
2022/07/14 00:54:45;;;;;;;26.70;3.97;;;;;;;;;;5052773;28;20021;-72
2022/07/14 00:57:11;;;;;;;23.00;3.80;;;;;;;;;;5053066;28;20470;-72
2022/07/14 00:59:37;;;;;;;20.55;3.25;;;;;;;;;;5054034;28;20025;-74
2022/07/14 01:02:03;;;;;;;21.40;3.50;;;;;;;;;;5054282;28;20126;-72
2022/07/14 01:04:29;;;;;;;18.70;3.15;;;;;;;;;;5053834;28;20040;-72
2022/07/14 01:06:55;;;;;;;22.35;3.40;;;;;;;;;;5060363;28;20033;-73
2022/07/14 01:09:21;;;;;;;21.90;3.75;;;;;;;;;;5057146;28;20029;-72
2022/07/14 01:11:47;;;;;;;22.27;4.63;;;;;;;;;;5065156;28;20063;-72
2022/07/14 01:14:13;;;;;;;23.67;4.10;;;;;;;;;;5063991;28;20036;-71
2022/07/14 01:16:39;;;;;;;16.63;3.60;;;;;;;;;;5055092;28;20032;-70
2022/07/14 01:19:04;;;;;;;19.92;3.42;;;;;;;;;;5052496;28;20023;-73
2022/07/14 01:21:30;;;;;;;24.83;3.47;;;;;;;;;;5054206;28;20410;-73
2022/07/14 01:23:56;;;;;;;21.83;4.55;;;;;;;;;;5052293;28;20438;-72
2022/07/14 01:26:24;;;;;;;24.33;4.13;;;;;;;;;;5052020;28;20029;-72
2022/07/14 01:28:50;;;;;;;21.67;3.58;;;;;;;;;;5054136;28;20021;-72
2022/07/14 01:31:16;;;;;;;16.65;3.05;;;;;;;;;;5053524;28;20526;-72
2022/07/14 01:33:42;;;;;;;20.55;3.53;;;;;;;;;;5051504;28;20056;-72
2022/07/14 01:36:08;;;;;;;16.52;3.05;;;;;;;;;;5051747;28;20032;-72
2022/07/14 01:38:34;;;;;;;20.27;3.58;;;;;;;;;;5051275;28;20079;-73
2022/07/14 01:40:59;;;;;;;17.60;3.20;;;;;;;;;;5051930;28;20029;-71
2022/07/14 01:43:25;;;;;;;18.48;3.22;;;;;;;;;;5051776;28;20485;-70
2022/07/14 01:45:51;;;;;;;14.48;3.10;;;;;;;;;;5051575;28;20098;-70
2022/07/14 01:48:17;;;;;;;24.23;4.05;;;;;;;;;;5051811;28;20100;-71
2022/07/14 01:50:43;;;;;;;28.75;4.03;;;;;;;;;;5051630;28;20021;-72
2022/07/14 01:53:09;;;;;;;19.45;3.33;;;;;;;;;;5051619;28;20031;-72
2022/07/14 01:55:35;;;;;;;21.73;3.88;;;;;;;;;;5050032;28;20144;-72
2022/07/14 01:58:01;;;;;;;17.13;3.30;;;;;;;;;;5051978;28;20437;-72
2022/07/14 02:00:27;;;;;;;21.63;3.20;;;;;;;;;;5051799;28;20035;-72
2022/07/14 02:02:53;;;;;;;17.25;2.90;;;;;;;;;;5051734;28;20078;-72
2022/07/14 02:05:19;;;;;;;17.05;3.45;;;;;;;;;;5051629;28;20050;-73
2022/07/14 02:07:45;;;;;;;19.63;3.50;;;;;;;;;;5052045;28;20029;-75
2022/07/14 02:12:56;;;;;;;18.83;3.20;;;;;;;;;;5051223;28;20434;-74
2022/07/14 02:15:22;;;;;;;15.63;3.00;;;;;;;;;;5050848;28;20446;-74
2022/07/14 02:17:48;;;;;;;19.08;3.55;;;;;;;;;;5051720;28;20059;-72
2022/07/14 02:20:14;;;;;;;16.63;3.95;;;;;;;;;;5052909;28;20064;-71
2022/07/14 02:22:40;;;;;;;20.33;4.10;;;;;;;;;;5051328;28;20056;-72
2022/07/14 02:25:07;;;;;;;26.48;3.45;;;;;;;;;;5051539;28;20359;-72
2022/07/14 02:27:33;;;;;;;23.33;3.40;;;;;;;;;;5050987;28;20028;-71
2022/07/14 02:29:59;;;;;;;31.73;4.00;;;;;;;;;;5051150;28;20025;-72
2022/07/14 02:32:25;;;;;;;27.38;4.65;;;;;;;;;;5051217;28;20032;-72
2022/07/14 02:34:51;;;;;;;21.10;3.58;;;;;;;;;;5051502;28;20029;-71
2022/07/14 02:37:17;;;;;;;16.40;2.95;;;;;;;;;;5050992;28;20026;-72
2022/07/14 02:39:43;;;;;;;21.70;3.80;;;;;;;;;;5051489;28;20029;-71
2022/07/14 02:42:09;;;;;;;21.40;3.55;;;;;;;;;;5050960;28;20032;-72
2022/07/14 02:44:34;;;;;;;21.55;3.45;;;;;;;;;;5051442;28;20489;-72
2022/07/14 02:47:00;;;;;;;18.90;3.42;;;;;;;;;;5054414;28;20561;-72
2022/07/14 02:49:26;;;;;;;22.10;3.70;;;;;;;;;;5055841;28;20053;-72
2022/07/14 02:51:52;;;;;;;15.57;3.05;;;;;;;;;;5055009;28;20079;-73
2022/07/14 02:54:18;;;;;;;21.55;3.10;;;;;;;;;;5068090;28;20049;-73
2022/07/14 02:56:45;;;;;;;20.60;3.30;;;;;;;;;;5069003;28;20394;-71
2022/07/14 02:59:10;;;;;;;27.08;3.60;;;;;;;;;;5073090;28;20017;-73
2022/07/14 03:01:36;;;;;;;19.70;3.55;;;;;;;;;;5073101;28;20013;-72
2022/07/14 03:04:03;;;;;;;18.67;5.18;;;;;;;;;;5072890;28;20049;-72
2022/07/14 03:06:29;;;;;;;21.63;4.70;;;;;;;;;;5070679;28;20025;-72
2022/07/14 03:08:55;;;;;;;19.20;4.55;;;;;;;;;;5060593;28;20029;-72
2022/07/14 03:11:21;;;;;;;21.90;2.80;;;;;;;;;;5057288;28;20502;-72
2022/07/14 03:13:47;;;;;;;20.10;4.43;;;;;;;;;;5056317;28;20108;-73
2022/07/14 03:16:13;;;;;;;20.67;3.65;;;;;;;;;;5055293;28;20029;-73
2022/07/14 03:18:40;;;;;;;19.30;3.90;;;;;;;;;;5058035;28;20059;-73
2022/07/14 03:21:07;;;;;;;20.15;3.70;;;;;;;;;;5053236;28;20068;-71
2022/07/14 03:23:34;;;;;;;15.95;3.67;;;;;;;;;;5054664;28;20108;-72
2022/07/14 03:25:59;;;;;;;16.65;3.20;;;;;;;;;;5055880;28;20021;-73
2022/07/14 03:28:25;;;;;;;15.48;3.00;;;;;;;;;;5054914;28;20075;-73
2022/07/14 03:30:55;;;;;;;19.17;3.13;;;;;;;;;;5054836;28;20025;-73
2022/07/14 03:33:21;;;;;;;18.70;3.60;;;;;;;;;;5054530;28;20024;-73
2022/07/14 03:35:48;;;;;;;16.65;3.40;;;;;;;;;;5054706;28;20466;-73
2022/07/14 03:38:14;;;;;;;17.55;3.20;;;;;;;;;;5055037;28;20610;-73
2022/07/14 03:40:40;;;;;;;17.67;3.45;;;;;;;;;;5054541;28;20025;-73
2022/07/14 03:43:06;;;;;;;22.25;3.58;;;;;;;;;;5054530;28;20547;-75
2022/07/14 03:45:33;;;;;;;9.85;2.65;;;;;;;;;;5053831;28;20029;-73
2022/07/14 03:47:59;;;;;;;17.35;3.13;;;;;;;;;;5054046;28;20107;-72
2022/07/14 03:50:25;;;;;;;16.48;3.30;;;;;;;;;;5054144;28;20496;-72
2022/07/14 03:52:51;;;;;;;23.88;4.20;;;;;;;;;;5052924;28;20057;-73
2022/07/14 03:55:17;;;;;;;19.70;3.35;;;;;;;;;;5055225;28;20106;-72
2022/07/14 03:57:43;;;;;;;14.38;3.50;;;;;;;;;;5055994;28;20047;-72
2022/07/14 04:00:09;;;;;;;19.92;3.65;;;;;;;;;;5055266;28;20036;-72
2022/07/14 04:02:35;;;;;;;14.00;4.20;;;;;;;;;;5055044;28;20021;-73
2022/07/14 04:05:02;;;;;;;22.10;4.45;;;;;;;;;;5055334;28;20424;-72
2022/07/14 04:07:28;;;;;;;22.25;3.83;;;;;;;;;;5056579;28;20035;-72
2022/07/14 04:09:54;;;;;;;18.65;3.40;;;;;;;;;;5062228;28;20024;-73
2022/07/14 04:12:20;;;;;;;23.63;3.28;;;;;;;;;;5063273;28;20096;-72
2022/07/14 04:14:47;;;;;;;18.38;3.92;;;;;;;;;;5082086;22;20508;-76
2022/07/14 04:17:13;;;;;;;20.65;3.83;;;;;;;;;;5060423;28;20013;-77
2022/07/14 04:19:39;;;;;;;23.58;3.72;;;;;;;;;;5066259;28;20429;-76
2022/07/14 04:22:05;;;;;;;19.67;3.67;;;;;;;;;;5054545;28;20092;-75
2022/07/14 04:24:31;;;;;;;15.65;3.15;;;;;;;;;;5053718;28;20028;-74
2022/07/14 04:26:57;;;;;;;19.92;4.68;;;;;;;;;;5053761;28;20028;-75
2022/07/14 04:29:23;;;;;;;17.33;3.40;;;;;;;;;;5053442;28;20025;-76
2022/07/14 04:31:49;;;;;;;18.92;3.60;;;;;;;;;;5056126;28;20032;-76
2022/07/14 04:34:15;;;;;;;15.95;3.00;;;;;;;;;;5056375;28;20440;-75
2022/07/14 04:36:41;;;;;;;21.92;3.92;;;;;;;;;;5054406;28;20056;-75
2022/07/14 04:39:07;;;;;;;20.70;4.07;;;;;;;;;;5053717;28;20028;-75
2022/07/14 04:41:35;;;;;;;18.92;3.58;;;;;;;;;;5055216;28;20051;-75
2022/07/14 04:44:01;;;;;;;25.20;3.95;;;;;;;;;;5056998;28;20044;-74
2022/07/14 04:46:27;;;;;;;20.35;3.80;;;;;;;;;;5052903;28;20473;-75
2022/07/14 04:54:22;;;;;;;19.63;3.85;;;;;;;;;;5056900;28;20056;-75
2022/07/14 04:56:48;;;;;;;17.98;3.65;;;;;;;;;;5059015;28;20025;-75
2022/07/14 04:59:14;;;;;;;24.75;4.07;;;;;;;;;;5060508;28;20013;-76
2022/07/14 05:01:40;;;;;;;17.92;3.55;;;;;;;;;;5075381;28;20008;-77
2022/07/14 05:04:06;;;;;;;20.00;3.67;;;;;;;;;;5075878;28;20025;-77
2022/07/14 05:06:32;;;;;;;26.13;4.57;;;;;;;;;;5076459;28;20037;-76
2022/07/14 05:08:58;;;;;;;14.50;3.55;;;;;;;;;;5074371;28;20055;-76
2022/07/14 05:11:24;;;;;;;21.33;3.83;;;;;;;;;;5072207;28;20111;-77
2022/07/14 05:13:51;;;;;;;19.38;3.53;;;;;;;;;;5057796;28;20470;-76
2022/07/14 05:16:17;;;;;;;25.33;4.18;;;;;;;;;;5053669;28;20033;-76
2022/07/14 05:18:43;;;;;;;15.48;3.13;;;;;;;;;;5053448;28;20032;-77
2022/07/14 05:21:09;;;;;;;34.85;6.13;;;;;;;;;;5054233;28;20069;-76
2022/07/14 05:23:35;;;;;;;21.13;4.05;;;;;;;;;;5054320;28;20052;-76
2022/07/14 05:26:01;;;;;;;22.48;3.55;;;;;;;;;;5052855;28;20019;-76
2022/07/14 05:28:27;;;;;;;19.63;2.80;;;;;;;;;;5054544;28;20025;-76
2022/07/14 05:31:00;;;;;;;22.33;3.35;;;;;;;;;;5054502;28;20065;-75
2022/07/14 05:33:26;;;;;;;20.88;3.72;;;;;;;;;;5053150;28;20040;-75
2022/07/14 05:35:52;;;;;;;12.73;3.22;;;;;;;;;;5056300;28;20024;-76
2022/07/14 05:38:18;;;;;;;20.65;3.28;;;;;;;;;;5057937;28;20019;-76
2022/07/14 05:40:43;;;;;;;15.48;3.00;;;;;;;;;;5055865;28;20045;-76
2022/07/14 05:43:11;;;;;;;15.05;2.60;;;;;;;;;;5072948;28;20094;-77
2022/07/14 05:45:37;;;;;;;13.15;2.53;;;;;;;;;;5058206;28;20017;-75
2022/07/14 05:48:03;;;;;;;13.55;2.17;;;;;;;;;;5052810;28;20443;-76
2022/07/14 05:50:29;;;;;;;11.38;1.90;;;;;;;;;;5053388;28;20055;-76
2022/07/14 05:52:55;;;;;;;18.73;2.28;;;;;;;;;;5053699;28;20017;-76
2022/07/14 05:55:22;;;;;;;13.48;2.20;;;;;;;;;;5057137;28;20033;-75
2022/07/14 05:57:49;;;;;;;15.52;2.38;;;;;;;;;;5056971;28;20017;-75
2022/07/14 06:00:15;;;;;;;13.02;2.10;;;;;;;;;;5058513;28;20029;-75
2022/07/14 06:02:41;;;;;;;11.02;1.95;;;;;;;;;;5058283;28;20029;-75
2022/07/14 06:05:07;;;;;;;9.68;2.00;;;;;;;;;;5058684;28;20040;-76
2022/07/14 06:07:33;;;;;;;9.10;1.50;;;;;;;;;;5060103;28;20029;-77
2022/07/14 06:10:01;;;;;;;10.52;1.65;;;;;;;;;;5055383;28;20073;-75
2022/07/14 06:12:27;;;;;;;20.55;2.08;;;;;;;;;;5055322;28;20071;-76
2022/07/14 06:14:53;;;;;;;8.50;1.30;;;;;;;;;;5051925;28;20029;-77
2022/07/14 06:17:19;;;;;;;7.47;1.70;;;;;;;;;;5053256;28;20098;-77
2022/07/14 06:19:45;;;;;;;14.27;1.58;;;;;;;;;;5053942;28;20033;-77
2022/07/14 06:22:11;;;;;;;6.95;1.30;;;;;;;;;;5057082;28;20457;-76
2022/07/14 06:24:38;;;;;;;10.20;1.73;;;;;;;;;;5058949;28;20029;-76
2022/07/14 06:27:04;;;;;;;11.38;1.80;;;;;;;;;;5057744;28;20381;-77
2022/07/14 06:29:30;;;;;;;17.63;2.55;;;;;;;;;;5062839;28;20052;-77
2022/07/14 06:31:56;;;;;;;10.35;1.80;;;;;;;;;;5056342;28;20025;-75
2022/07/14 06:34:23;;;;;;;11.80;1.70;;;;;;;;;;5060328;28;20061;-77
2022/07/14 06:36:49;;;;;;;14.48;1.60;;;;;;;;;;5063957;28;20035;-77
2022/07/14 06:39:15;;;;;;;9.32;1.48;;;;;;;;;;5068033;28;20032;-77
2022/07/14 06:41:42;;;;;;;10.18;1.70;;;;;;;;;;5062518;28;20021;-81
2022/07/14 06:44:08;;;;;;;14.77;1.88;;;;;;;;;;5067034;28;20025;-78
2022/07/14 06:46:34;;;;;;;10.00;2.08;;;;;;;;;;5063580;28;20032;-76
2022/07/14 06:49:00;;;;;;;5.95;0.98;;;;;;;;;;5059066;28;20029;-76
2022/07/14 06:51:26;;;;;;;10.18;2.00;;;;;;;;;;5060130;28;20162;-79
2022/07/14 06:53:53;;;;;;;9.10;1.35;;;;;;;;;;5070630;28;20060;-78
2022/07/14 06:56:19;;;;;;;10.10;1.50;;;;;;;;;;5076286;28;20013;-80
2022/07/14 06:58:45;;;;;;;10.20;1.50;;;;;;;;;;5076730;28;20013;-76
2022/07/14 07:01:11;;;;;;;9.18;1.40;;;;;;;;;;5061781;28;20104;-78
2022/07/14 07:03:37;;;;;;;8.27;1.38;;;;;;;;;;5063225;28;20130;-75
2022/07/14 07:08:48;;;;;;;5.70;1.48;;;;;;;;;;5063225;28;20130;-77
2022/07/14 07:11:15;;;;;;;10.07;1.55;;;;;;;;;;5064095;28;20037;-77
2022/07/14 07:13:41;;;;;;;8.25;1.63;;;;;;;;;;5063847;28;20052;-77
2022/07/14 07:16:08;;;;;;;6.38;1.23;;;;;;;;;;5059504;28;20033;-78
2022/07/14 07:18:34;;;;;;;10.95;1.33;;;;;;;;;;5061047;28;20017;-77
2022/07/14 07:21:00;;;;;;;11.52;1.50;;;;;;;;;;5058163;28;20454;-78
2022/07/14 07:23:26;;;;;;;5.28;1.10;;;;;;;;;;5057798;28;20569;-78
2022/07/14 07:25:53;;;;;;;6.88;1.13;;;;;;;;;;5063055;28;20092;-78
2022/07/14 07:28:19;;;;;;;9.02;1.35;;;;;;;;;;5058288;28;20614;-78
2022/07/14 07:30:45;;;;;;;12.68;1.45;;;;;;;;;;5059235;28;20035;-76
2022/07/14 07:33:11;;;;;;;7.93;1.38;;;;;;;;;;5062638;28;20053;-76
2022/07/14 07:35:38;;;;;;;14.88;1.52;;;;;;;;;;5064320;28;20493;-76
2022/07/14 07:38:04;;;;;;;9.10;1.27;;;;;;;;;;5069954;28;20431;-80
2022/07/14 07:40:30;;;;;;;7.65;1.63;;;;;;;;;;5077036;28;20024;-76
2022/07/14 07:42:56;;;;;;;4.45;1.20;;;;;;;;;;5077911;28;20009;-78
2022/07/14 07:45:22;;;;;;;7.60;1.20;;;;;;;;;;5068940;28;20509;-77
2022/07/14 07:47:48;;;;;;;8.13;1.00;;;;;;;;;;5056092;28;20028;-78
2022/07/14 07:50:14;;;;;;;12.27;1.45;;;;;;;;;;5056028;28;20025;-77
2022/07/14 07:52:40;;;;;;;8.48;1.30;;;;;;;;;;5056339;28;20114;-78
2022/07/14 07:55:10;;;;;;;9.32;1.20;;;;;;;;;;5057616;28;20040;-78
2022/07/14 07:57:36;;;;;;;10.27;1.13;;;;;;;;;;5054903;28;20557;-77
2022/07/14 08:00:04;;;;;;;10.30;1.35;;;;;;;;;;5054978;28;20045;-77
2022/07/14 08:02:30;;;;;;;11.20;1.67;;;;;;;;;;5055481;28;20436;-77
2022/07/14 08:04:56;;;;;;;9.63;1.30;;;;;;;;;;5056052;28;20116;-78
2022/07/14 08:07:22;;;;;;;8.02;1.63;;;;;;;;;;5054039;28;20064;-77
2022/07/14 08:09:48;;;;;;;13.02;1.50;;;;;;;;;;5055783;28;20079;-77
2022/07/14 08:12:14;;;;;;;7.97;1.33;;;;;;;;;;5057230;28;20051;-81
2022/07/14 08:14:50;;;;;;;12.68;1.13;;;;;;;;;;5057618;28;20457;-77
2022/07/14 08:17:20;;;;;;;29.85;5.75;;;;;;;;;;5057467;28;20021;-79
2022/07/14 08:19:46;;;;;;;24.95;2.90;;;;;;;;;;5055955;28;20093;-78
2022/07/14 08:22:13;;;;;;;9.48;1.65;;;;;;;;;;5055686;28;20092;-78
2022/07/14 08:24:39;;;;;;;6.68;1.13;;;;;;;;;;5059270;28;20025;-79
2022/07/14 08:27:05;;;;;;;6.18;1.00;;;;;;;;;;5058286;28;20043;-77
2022/07/14 08:29:32;;;;;;;10.10;1.27;;;;;;;;;;5057083;28;20041;-80
2022/07/14 08:31:58;;;;;;;5.95;1.27;;;;;;;;;;5056337;28;20079;-78
2022/07/14 08:34:24;;;;;;;7.97;1.42;;;;;;;;;;5056968;28;20029;-78
2022/07/14 08:36:50;;;;;;;8.02;1.65;;;;;;;;;;5056704;28;20096;-78
2022/07/14 08:39:16;;;;;;;5.78;1.23;;;;;;;;;;5056008;28;20032;-77
2022/07/14 08:41:43;;;;;;;11.02;1.20;;;;;;;;;;5059612;28;20029;-76
2022/07/14 08:44:09;;;;;;;5.18;1.13;;;;;;;;;;5056713;28;20028;-78
2022/07/14 08:46:37;;;;;;;11.30;3.42;;;;;;;;;;5063921;28;20083;-77
2022/07/14 08:49:06;;;;;;;6.97;1.10;;;;;;;;;;5069792;28;20017;-76
2022/07/14 08:51:33;;;;;;;10.32;1.30;;;;;;;;;;5060985;28;20036;-77
2022/07/14 08:54:00;;;;;;;7.68;0.90;;;;;;;;;;5054572;28;20025;-76
2022/07/14 08:56:26;;;;;;;8.68;1.20;;;;;;;;;;5058741;28;20107;-80
2022/07/14 08:58:53;;;;;;;7.78;1.73;;;;;;;;;;5055561;28;20067;-77
2022/07/14 09:01:19;;;;;;;5.07;0.90;;;;;;;;;;5058251;28;20025;-77
2022/07/14 09:03:45;;;;;;;6.40;0.80;;;;;;;;;;5054531;28;20026;-77
2022/07/14 09:06:12;;;;;;;6.07;1.10;;;;;;;;;;5054562;28;20032;-77
2022/07/14 09:08:54;;;;;;;5.65;1.13;;;;;;;;;;5054662;28;20017;-77
2022/07/14 09:11:20;;;;;;;10.77;1.45;;;;;;;;;;5054020;28;20017;-77
2022/07/14 09:13:46;;;;;;;7.53;1.13;;;;;;;;;;5053914;28;20062;-77
2022/07/14 09:16:13;;;;;;;10.02;1.17;;;;;;;;;;5054802;28;20134;-79
2022/07/14 09:18:41;;;;;;;6.25;1.10;;;;;;;;;;5055273;28;20138;-78
2022/07/14 09:21:18;;;;;;;12.98;1.20;;;;;;;;;;5057483;28;20020;-79
2022/07/14 09:23:45;;;;;;;6.15;1.17;;;;;;;;;;5055289;28;20025;-76
2022/07/14 09:26:12;;;;;;;5.00;0.90;;;;;;;;;;5053670;28;20414;-78
2022/07/14 09:28:41;;;;;;;5.80;1.30;;;;;;;;;;5051514;28;20029;-78
2022/07/14 09:31:26;;;;;;;4.45;1.00;;;;;;;;;;5053671;28;20033;-78
2022/07/14 09:33:55;;;;;;;5.93;1.17;;;;;;;;;;5055072;28;20100;-76
2022/07/14 09:36:26;;;;;;;3.45;0.80;;;;;;;;;;5054514;28;20021;-79
2022/07/14 09:38:52;;;;;;;6.65;1.17;;;;;;;;;;5054578;28;20052;-77
2022/07/14 09:41:20;;;;;;;8.65;1.80;;;;;;;;;;5057017;28;20671;-76
2022/07/14 09:44:05;;;;;;;8.52;2.22;;;;;;;;;;5055929;28;20429;-77
2022/07/14 09:46:31;;;;;;;;;;;;;;;;;;5066829;28;20021;-78
2022/07/14 09:49:08;;;;;;;3.83;1.00;;;;;;;;;;5076253;28;19964;-76
2022/07/14 09:51:34;;;;;;;8.32;1.10;;;;;;;;;;5064455;28;20025;-77
2022/07/14 09:54:00;;;;;;;10.73;1.20;;;;;;;;;;5057893;28;20547;-79
2022/07/14 09:56:29;;;;;;;6.53;1.20;;;;;;;;;;5057087;28;20045;-80
2022/07/14 09:58:56;;;;;;;9.35;1.13;;;;;;;;;;5055178;28;20017;-77
2022/07/14 10:01:27;;;;;;;5.25;0.85;;;;;;;;;;5055566;28;20021;-77
2022/07/14 10:03:54;;;;;;;7.57;0.80;;;;;;;;;;5056109;28;20025;-78
2022/07/14 10:06:21;;;;;;;5.93;1.08;;;;;;;;;;5067253;28;20029;-78
2022/07/14 10:08:50;;;;;;;8.70;1.10;;;;;;;;;;5067489;28;20033;-76
2022/07/14 10:11:16;;;;;;;2.60;0.75;;;;;;;;;;5060665;28;20025;-78
2022/07/14 10:13:43;;;;;;;7.00;1.00;;;;;;;;;;5063237;28;20087;-77
2022/07/14 10:16:09;;;;;;;5.43;1.10;;;;;;;;;;5099107;22;20041;-78
2022/07/14 10:18:35;;;;;;;10.43;1.23;;;;;;;;;;5060014;28;20119;-76
2022/07/14 10:21:01;;;;;;;6.00;1.00;;;;;;;;;;5068751;28;20029;-74
2022/07/14 10:23:29;;;;;;;7.88;1.90;;;;;;;;;;5078595;28;20031;-74
2022/07/14 10:25:56;;;;;;;22.58;6.72;;;;;;;;;;5095747;28;20025;-74
2022/07/14 10:28:22;;;;;;;16.88;6.18;;;;;;;;;;5090457;28;20393;-74
2022/07/14 10:30:51;;;;;;;11.38;1.35;;;;;;;;;;5073479;28;20412;-75
2022/07/14 10:33:41;;;;;;;11.23;1.33;;;;;;;;;;5075256;28;20062;-76
2022/07/14 10:36:26;;;;;;;6.30;1.20;;;;;;;;;;5072321;28;20060;-76
2022/07/14 10:39:07;;;;;;;8.80;1.42;;;;;;;;;;5079411;28;20044;-76
2022/07/14 10:41:52;;;;;;;11.85;1.60;;;;;;;;;;5074000;28;20039;-75
2022/07/14 10:44:17;;;;;;;;;;;;;;;;;;5073638;28;20115;-75
2022/07/14 10:46:45;;;;;;;7.70;1.30;;;;;;;;;;5079375;28;19942;-77
2022/07/14 10:49:12;;;;;;;5.50;0.90;;;;;;;;;;5080279;28;20111;-76
2022/07/14 10:51:44;;;;;;;9.15;1.30;;;;;;;;;;5073466;28;20370;-76
2022/07/14 10:54:15;;;;;;;11.48;1.70;;;;;;;;;;5073598;28;20040;-76
2022/07/14 10:56:41;;;;;;;5.03;1.27;;;;;;;;;;5073068;28;20024;-76
2022/07/14 10:59:25;;;;;;;4.45;1.00;;;;;;;;;;5074427;28;20021;-76
2022/07/14 11:02:22;;;;;;;7.40;1.63;;;;;;;;;;5074269;28;20100;-75
2022/07/14 11:05:12;;;;;;;5.40;0.90;;;;;;;;;;5065153;28;20041;-76
2022/07/14 11:07:40;;;;;;;5.82;1.60;;;;;;;;;;5074463;28;20465;-76
2022/07/14 11:10:06;;;;;;;6.40;1.20;;;;;;;;;;5077971;28;20385;-75
2022/07/14 11:12:32;;;;;;;5.68;1.08;;;;;;;;;;5079123;28;20024;-76
2022/07/14 11:14:58;;;;;;;10.93;1.35;;;;;;;;;;5079636;28;20037;-76
2022/07/14 11:17:33;;;;;;;10.20;1.27;;;;;;;;;;5081097;28;20032;-77
2022/07/14 11:19:59;;;;;;;8.82;1.00;;;;;;;;;;5076929;28;20016;-76
2022/07/14 11:22:25;;;;;;;2.78;0.80;;;;;;;;;;5086574;28;20519;-76
2022/07/14 11:24:58;;;;;;;4.93;1.00;;;;;;;;;;5084956;28;20033;-77
2022/07/14 11:27:36;;;;;;;9.13;1.17;;;;;;;;;;5079411;28;20029;-76
2022/07/14 11:30:17;;;;;;;6.93;1.30;;;;;;;;;;5081463;28;20032;-76
2022/07/14 11:32:43;;;;;;;4.45;1.00;;;;;;;;;;5084145;28;20029;-77
2022/07/14 11:37:58;;;;;;;8.15;1.35;;;;;;;;;;5083227;28;20027;-75
2022/07/14 11:40:41;;;;;;;6.05;1.20;;;;;;;;;;5094332;28;20036;-74
2022/07/14 11:43:27;;;;;;;6.60;1.10;;;;;;;;;;5096637;28;20025;-76
2022/07/14 11:45:54;;;;;;;7.10;1.42;;;;;;;;;;5095430;28;20068;-75
2022/07/14 11:48:20;;;;;;;6.35;1.02;;;;;;;;;;5097289;28;20025;-75
2022/07/14 11:50:48;;;;;;;8.13;1.10;;;;;;;;;;5095544;28;20084;-76
2022/07/14 11:53:15;;;;;;;6.82;1.45;;;;;;;;;;5076634;28;20026;-76
2022/07/14 11:55:41;;;;;;;4.82;1.30;;;;;;;;;;5075663;28;20032;-75
2022/07/14 11:58:08;;;;;;;4.80;1.20;;;;;;;;;;5073660;28;20388;-75
2022/07/14 12:00:35;;;;;;;4.82;1.00;;;;;;;;;;5074256;28;20074;-75
2022/07/14 12:03:03;;;;;;;8.73;1.30;;;;;;;;;;5077601;28;20020;-76
2022/07/14 12:05:30;;;;;;;8.30;1.00;;;;;;;;;;5076966;28;20028;-76
2022/07/14 12:07:56;;;;;;;5.65;1.23;;;;;;;;;;5075955;28;20040;-76
2022/07/14 12:10:36;;;;;;;4.78;1.20;;;;;;;;;;5075411;28;20055;-75
2022/07/14 12:13:03;;;;;;;3.05;1.00;;;;;;;;;;5074046;28;20025;-76
2022/07/14 12:15:30;;;;;;;8.95;1.20;;;;;;;;;;5072693;28;20615;-76
2022/07/14 12:17:56;;;;;;;6.07;1.70;;;;;;;;;;5074028;28;20462;-74
2022/07/14 12:20:24;;;;;;;3.53;1.30;;;;;;;;;;5073790;28;20020;-75
2022/07/14 12:22:54;;;;;;;7.10;1.40;;;;;;;;;;5073551;28;20013;-78
2022/07/14 12:25:33;;;;;;;6.13;1.42;;;;;;;;;;5073031;28;20492;-77
2022/07/14 12:28:00;;;;;;;3.03;1.30;;;;;;;;;;5074838;28;20025;-77
2022/07/14 12:30:42;;;;;;;4.40;1.20;;;;;;;;;;5075361;28;20028;-76
2022/07/14 12:33:08;;;;;;;8.68;1.35;;;;;;;;;;5074305;28;20059;-76
2022/07/14 12:35:34;;;;;;;5.53;0.90;;;;;;;;;;5072610;28;20495;-76
2022/07/14 12:38:00;;;;;;;5.38;0.75;;;;;;;;;;5073871;28;20027;-77
2022/07/14 12:40:26;;;;;;;2.78;0.80;;;;;;;;;;5075034;28;20050;-75
2022/07/14 12:42:52;;;;;;;6.35;1.30;;;;;;;;;;5072589;28;20507;-75
2022/07/14 12:45:18;;;;;;;9.80;1.00;;;;;;;;;;5075284;28;20040;-74
2022/07/14 12:47:48;;;;;;;7.15;2.40;;;;;;;;;;5081423;28;20435;-76
2022/07/14 12:50:24;;;;;;;5.32;0.90;;;;;;;;;;5075080;28;20103;-75
2022/07/14 12:52:52;;;;;;;8.73;1.27;;;;;;;;;;5074493;28;20038;-75
2022/07/14 12:55:32;;;;;;;6.28;1.10;;;;;;;;;;5074515;28;20032;-73
2022/07/14 12:58:07;;;;;;;4.07;0.90;;;;;;;;;;5088221;28;20016;-77
2022/07/14 13:00:34;;;;;;;3.10;0.98;;;;;;;;;;5081958;28;20017;-76
2022/07/14 13:03:07;;;;;;;5.03;0.95;;;;;;;;;;5074136;28;20020;-76
2022/07/14 13:05:33;;;;;;;5.75;1.00;;;;;;;;;;5073727;28;20380;-77
2022/07/14 13:07:59;;;;;;;5.95;1.08;;;;;;;;;;5075400;28;20043;-77
2022/07/14 13:10:26;;;;;;;3.95;0.90;;;;;;;;;;5076167;28;20100;-76
2022/07/14 13:12:56;;;;;;;4.70;0.93;;;;;;;;;;5074011;28;20029;-77
2022/07/14 13:15:29;;;;;;;4.60;0.73;;;;;;;;;;5076011;28;20401;-76
2022/07/14 13:18:04;;;;;;;4.25;0.70;;;;;;;;;;5073929;28;20032;-77
2022/07/14 13:20:46;;;;;;;6.60;0.80;;;;;;;;;;5074985;28;20086;-76
2022/07/14 13:23:21;;;;;;;2.95;0.80;;;;;;;;;;5073740;28;20024;-76
2022/07/14 13:25:47;;;;;;;6.40;0.88;;;;;;;;;;5073874;28;20029;-75
2022/07/14 13:28:13;;;;;;;2.92;1.00;;;;;;;;;;5074789;28;20033;-77
2022/07/14 13:30:39;;;;;;;3.10;0.90;;;;;;;;;;5074384;28;20051;-75
2022/07/14 13:33:05;;;;;;;4.43;0.95;;;;;;;;;;5074387;28;20442;-75
2022/07/14 13:35:31;;;;;;;5.13;0.80;;;;;;;;;;5073131;28;20516;-77
2022/07/14 13:37:57;;;;;;;4.38;0.90;;;;;;;;;;5076253;28;20035;-75
2022/07/14 13:40:23;;;;;;;5.50;0.80;;;;;;;;;;5077166;28;20029;-75
2022/07/14 13:42:49;;;;;;;2.28;0.70;;;;;;;;;;5074320;28;20021;-77
2022/07/14 13:45:15;;;;;;;5.93;0.90;;;;;;;;;;5072050;28;20036;-76
2022/07/14 13:47:41;;;;;;;3.50;0.88;;;;;;;;;;5073944;28;20038;-77
2022/07/14 13:52:51;;;;;;;6.80;1.00;;;;;;;;;;5078847;28;20035;-79
2022/07/14 13:55:17;;;;;;;6.30;1.10;;;;;;;;;;5078986;28;20048;-78
2022/07/14 13:57:43;;;;;;;8.07;1.00;;;;;;;;;;5079899;28;20024;-77
2022/07/14 14:00:10;;;;;;;11.43;1.55;;;;;;;;;;5084208;28;20082;-78
2022/07/14 14:05:20;;;;;;;13.45;1.48;;;;;;;;;;5085461;28;20075;-76
2022/07/14 14:07:46;;;;;;;6.22;1.52;;;;;;;;;;5088669;28;20028;-75
2022/07/14 14:10:12;;;;;;;4.40;1.35;;;;;;;;;;5087858;28;20100;-75
2022/07/14 14:12:38;;;;;;;5.40;1.35;;;;;;;;;;5084465;28;20023;-77
2022/07/14 14:15:05;;;;;;;6.75;1.38;;;;;;;;;;5087261;28;20024;-77
2022/07/14 14:17:33;;;;;;;10.38;1.38;;;;;;;;;;5085253;28;20024;-77
2022/07/14 14:20:00;;;;;;;9.10;1.60;;;;;;;;;;5095047;28;20009;-74
2022/07/14 14:22:26;;;;;;;5.80;1.08;;;;;;;;;;5094286;28;20037;-75
2022/07/14 14:24:52;;;;;;;5.45;1.25;;;;;;;;;;5094420;28;20005;-76
2022/07/14 14:27:17;;;;;;;10.32;1.40;;;;;;;;;;5090018;28;20039;-77
2022/07/14 14:29:44;;;;;;;4.32;1.42;;;;;;;;;;5092234;28;20029;-75
2022/07/14 14:32:10;;;;;;;7.03;1.42;;;;;;;;;;5084239;28;20049;-75
2022/07/14 14:34:36;;;;;;;3.95;1.10;;;;;;;;;;5073286;28;20365;-77
2022/07/14 14:37:02;;;;;;;8.18;2.28;;;;;;;;;;5074985;28;20104;-76
2022/07/14 14:39:28;;;;;;;3.72;1.30;;;;;;;;;;5073567;28;20398;-76
2022/07/14 14:41:54;;;;;;;10.43;1.50;;;;;;;;;;5077095;28;20089;-76
2022/07/14 14:44:20;;;;;;;4.13;1.20;;;;;;;;;;5078994;28;20025;-77
2022/07/14 14:46:46;;;;;;;5.82;1.15;;;;;;;;;;5078667;28;20024;-77
2022/07/14 14:49:12;;;;;;;13.48;1.67;;;;;;;;;;5077463;28;20158;-76
2022/07/14 14:51:38;;;;;;;6.03;1.60;;;;;;;;;;5079137;28;20052;-76
2022/07/14 14:54:04;;;;;;;12.25;1.58;;;;;;;;;;5082600;28;20078;-77
2022/07/14 14:56:30;;;;;;;10.27;1.92;;;;;;;;;;5077852;28;20036;-76